CheckWX is a tool to help pilots better visualize weather data.  It is not intended as a substitute for an official pre-flight weather briefing.

22:03:00 UTC

VTBO TAF
Trat Airport
Thailand
TAF VTBO 201700Z 2018/2118 00000KT 3000 BR FEW020 BECMG 2102/2104 21008KT 8000 NSW

Mar-20@
18:00 UTC

Mar-20 @ 18:00 UTC

Mar-21@
02:00 UTC

Mar-21 @ 02:00 UTC

TAF VTBO 201700Z 2018/2118 00000KT 3000 BR FEW020
Conditions
Mist
Cloud Levels
  • Few at 2,000' AGL

Mar-21@
02:00 UTC

Mar-21 @ 02:00 UTC

Mar-21@
18:00 UTC

Mar-21 @ 18:00 UTC

BECMG 2102/2104 21008KT 8000 NSW

Becoming

Becoming Conditions expected by Thu, Mar 21, 2019 @ 04:00 UTC

Wind
  • 210° at 8 KTS
Conditions
No significant weather
Cloud Levels
  • Few at 2,000' AGL